00:34
Airports
History
Links
Donate
Help keep this website running!
PayPal
Bitcoin
Information on this page is community maintained and may be outdated or inaccurate and is intended for reference only or PC simulator navigating.
Always use approved charts for navigating.
ENKR
HOYBUKTMOEN
HOYBUKTMOEN (ENKR)
Finnmark, Norway (9912)
(C)
Lat/Lng:69° 43' 30.77" N / 29° 53' 26.88" E
69.725215 / 29.8908
Elevation:283'ft 86mMSL
ID / ICAO:ENKR
Runways:1
Longest:(06-24) 1,882.9m 6,177ft Asphalt
Controlled:Yes
Distance To
Airport ID:
Airport Radio Frequencies
ATIS: 118.02
Tower: 118.1, 120.35, 122.1
Nearby VORs <50NM
Nearby NDBs
METARUpdated 07-25-17 00:20 GMT
Altimeter: 30.12
Visibility: 0.0 statute miles
Wind: 3 knots (VRB°)
Temp: 9°c 48°f
Humidity: 100.0%

METAR: ENKR 250020Z AUTO VRB03KT 0050 R06/0200N R24/0175N FG VV000 09/09 Q1020 RMK WIND 731FT 03003KT

(Powered by phpweather)
Runway 06 / 24
Dimensions:1882.9 x 45.1m 6177' x 148'ft
Surface:Asphalt
Edge Lights:High intensity
Runway 06 [A]Runway 24 [B]
Heading:069°TH 249°TH
Lat:
Lng:
69° 43' 19.86"N
29° 52' 4.57"E
69° 43' 41.69"N
29° 54' 49.19"E
ALS:RAILMALS
User Notes and Comments
Google Map
Nearby Airports
(C) Vadso 23.5 NM
ENVD N 357°
(C) SVARTNES 51.3 NM
ENSS NNE 32°
(C) BATSFJORD 60.6 NM
ENBS N 355°
(C) Berlevaag 81.7 NM
ENBV NNW 345°
(C) Murmansk 95.6 NM
ULMM (WX) SE 132°
(C) Ivalo 98.3 NM
EFIV (WX) SW 218°
(C) Mehamn 102.0 NM
ENMH NNW 332°
VFR Chart
Flight Planning at SkyVector.com